Pleasant Ridge, Mississippi
Current Conditions -  °F | °C
As of 12:55 PM on Saturday 25 Oct 2014 (Local Time) from KCRX Reporting Station
Clear Clear  
Wind Chill: 79°   Ceiling: Unl
Heat Index: 80°   Visibility: 10mi
Dew Point: 61°   Wind: 0mph
Humidity: 54%   Direction: NA
Pressure: 30.05"   Gusts: NA
Location:  34.6406°N, 88.8031°W
Report Text: KCRX 251755Z AUTO 00000KT 10SM CLR 26/16 A3005 RMK AO2
Loading
Personal Weather Stations






























Interactive Weather Map
Tropical Storm Tracking
New forecast layout! Learn more

10-Day Weather Forecast

Advertisements
Track Severe Weather on mobile